createdAt,value
2018-11-13T00:00:27.757Z,25.70
2018-11-13T00:02:57.171Z,26.67
2018-11-13T00:05:26.573Z,26.53
2018-11-13T00:07:55.663Z,23.40
2018-11-13T00:10:24.683Z,26.33
2018-11-13T00:12:53.958Z,27.70
2018-11-13T00:15:34.309Z,29.37
2018-11-13T00:18:03.371Z,30.23
2018-11-13T00:20:32.412Z,31.53
2018-11-13T00:23:01.574Z,27.33
2018-11-13T00:25:30.633Z,25.50
2018-11-13T00:28:00.327Z,25.60
2018-11-13T00:30:29.437Z,27.70
2018-11-13T00:32:58.581Z,35.77
2018-11-13T00:35:27.661Z,29.20
2018-11-13T00:37:56.825Z,28.10
2018-11-13T00:40:25.937Z,31.30
2018-11-13T00:42:54.976Z,26.60
2018-11-13T00:45:24.369Z,32.87
2018-11-13T00:49:16.346Z,30.53
2018-11-13T00:51:45.531Z,29.80
2018-11-13T00:54:14.704Z,30.40
2018-11-13T00:56:44.499Z,33.20
2018-11-13T00:59:15.556Z,39.47
2018-11-13T01:01:44.709Z,36.90
2018-11-13T01:04:13.853Z,36.50
2018-11-13T01:06:43.537Z,40.93
2018-11-13T01:12:24.922Z,38.58
2018-11-13T01:14:54.034Z,40.10
2018-11-13T01:17:23.117Z,39.90
2018-11-13T01:23:27.456Z,45.25
2018-11-13T01:25:56.540Z,46.20
2018-11-13T01:28:26.707Z,51.30
2018-11-13T01:37:24.105Z,48.85
2018-11-13T01:39:53.511Z,55.60
2018-11-13T01:46:37.635Z,56.53
2018-11-13T01:49:06.711Z,59.07
2018-11-13T01:51:35.822Z,60.30
2018-11-13T01:54:04.931Z,52.03
2018-11-13T01:56:33.965Z,54.63
2018-11-13T01:59:02.994Z,54.17
2018-11-13T02:01:32.201Z,51.50
2018-11-13T02:04:01.420Z,55.87
2018-11-13T02:06:53.915Z,52.10
2018-11-13T02:23:04.235Z,60.75
2018-11-13T02:25:33.297Z,60.00
2018-11-13T02:28:04.399Z,59.83
2018-11-13T02:30:33.581Z,65.97
2018-11-13T02:33:27.977Z,61.13
2018-11-13T02:35:57.075Z,68.13
2018-11-13T02:38:28.375Z,65.77
2018-11-13T02:40:57.457Z,69.57
2018-11-13T02:43:26.615Z,66.20
2018-11-13T02:46:00.642Z,68.37
2018-11-13T02:48:29.815Z,67.70
2018-11-13T02:51:04.929Z,63.20
2018-11-13T02:54:00.368Z,69.83
2018-11-13T02:56:29.477Z,70.70
2018-11-13T02:59:03.769Z,69.60
2018-11-13T03:01:33.045Z,61.07
2018-11-13T03:04:02.117Z,77.23
2018-11-13T03:09:24.778Z,82.67
2018-11-13T03:11:53.845Z,65.40
2018-11-13T03:14:22.937Z,69.70
2018-11-13T03:16:52.007Z,76.47
2018-11-13T03:19:21.865Z,69.80
2018-11-13T03:22:05.719Z,69.43
2018-11-13T03:24:35.298Z,68.73
2018-11-13T03:27:04.919Z,66.40
2018-11-13T03:29:34.022Z,68.47
2018-11-13T03:32:03.808Z,67.00
2018-11-13T03:34:43.982Z,72.10
2018-11-13T03:37:13.123Z,70.10
2018-11-13T03:39:42.276Z,65.33
2018-11-13T03:42:11.412Z,76.70
2018-11-13T03:44:40.560Z,68.97
2018-11-13T03:47:09.758Z,76.87
2018-11-13T03:49:42.882Z,87.83
2018-11-13T03:52:54.129Z,85.07
2018-11-13T03:55:23.351Z,70.10
2018-11-13T03:57:52.414Z,67.83
2018-11-13T04:00:23.522Z,72.33
2018-11-13T04:06:55.609Z,82.67
2018-11-13T04:09:24.653Z,80.57
2018-11-13T04:11:53.997Z,78.57
2018-11-13T04:14:43.460Z,93.73
2018-11-13T04:17:12.576Z,93.13
2018-11-13T04:19:41.675Z,78.77
2018-11-13T04:22:16.463Z,82.17
2018-11-13T04:24:45.650Z,81.97
2018-11-13T04:27:14.727Z,87.03
2018-11-13T04:29:43.775Z,84.00
2018-11-13T04:32:12.854Z,87.20
2018-11-13T04:34:41.964Z,81.33
2018-11-13T04:37:10.983Z,77.90
2018-11-13T04:39:40.046Z,83.33
2018-11-13T04:42:09.100Z,80.30
2018-11-13T04:44:38.166Z,89.70
2018-11-13T04:47:07.297Z,80.73
2018-11-13T04:49:36.332Z,89.80
2018-11-13T04:52:05.759Z,88.37
2018-11-13T04:54:34.778Z,82.20
2018-11-13T04:57:03.822Z,83.83
2018-11-13T05:13:08.575Z,75.42
2018-11-13T05:15:37.629Z,80.70
2018-11-13T05:18:07.196Z,89.83
2018-11-13T05:20:59.615Z,79.00
2018-11-13T05:23:28.724Z,78.70
2018-11-13T05:25:57.851Z,87.00
2018-11-13T05:28:27.395Z,100.87
2018-11-13T05:30:57.813Z,94.37
2018-11-13T05:33:57.239Z,91.20
2018-11-13T05:36:26.942Z,97.30
2018-11-13T05:38:58.327Z,91.67
2018-11-13T05:41:28.260Z,84.50
2018-11-13T05:43:57.453Z,86.00
2018-11-13T05:46:26.657Z,95.23
2018-11-13T05:49:01.871Z,100.70
2018-11-13T05:51:30.981Z,88.67
2018-11-13T05:54:00.669Z,104.63
2018-11-13T05:56:29.811Z,100.73
2018-11-13T05:58:59.333Z,91.30
2018-11-13T06:01:28.497Z,94.57
2018-11-13T06:03:57.631Z,100.03
2018-11-13T06:06:26.721Z,90.07
2018-11-13T06:08:55.808Z,80.80
2018-11-13T06:11:24.939Z,88.97
2018-11-13T06:13:54.048Z,78.13
2018-11-13T06:19:22.251Z,74.77
2018-11-13T06:21:51.343Z,74.57
2018-11-13T06:24:20.403Z,66.73
2018-11-13T06:26:49.597Z,74.83
2018-11-13T06:29:52.035Z,74.03
2018-11-13T06:32:37.425Z,72.40
2018-11-13T06:35:07.111Z,82.03
2018-11-13T06:40:45.901Z,64.87
2018-11-13T06:43:14.995Z,61.20
2018-11-13T06:45:44.161Z,139.23
2018-11-13T06:48:13.666Z,78.43
2018-11-13T06:54:04.655Z,57.75
2018-11-13T06:56:33.826Z,55.83
2018-11-13T06:59:03.942Z,54.13
2018-11-13T07:01:33.982Z,55.57
2018-11-13T07:04:03.123Z,54.50
2018-11-13T07:06:32.462Z,65.37
2018-11-13T07:09:14.465Z,56.27
2018-11-13T07:11:45.029Z,60.63
2018-11-13T07:14:14.547Z,53.13
2018-11-13T07:16:44.627Z,61.63
2018-11-13T07:19:15.419Z,58.33
2018-11-13T07:21:44.703Z,56.50
2018-11-13T07:24:14.114Z,56.47
2018-11-13T07:26:43.203Z,66.20
2018-11-13T07:29:12.302Z,61.33
2018-11-13T07:31:41.365Z,64.53
2018-11-13T07:34:10.509Z,65.93
2018-11-13T07:36:39.636Z,56.57
2018-11-13T07:39:10.465Z,62.03
2018-11-13T07:41:39.585Z,57.33
2018-11-13T07:44:08.677Z,63.43
2018-11-13T07:46:37.714Z,64.87
2018-11-13T07:49:06.791Z,62.63
2018-11-13T07:51:36.066Z,63.33
2018-11-13T07:54:05.463Z,71.87
2018-11-13T07:56:34.750Z,60.40
2018-11-13T07:59:03.919Z,68.17
2018-11-13T08:04:42.877Z,56.30
2018-11-13T08:07:12.068Z,55.43
2018-11-13T08:09:41.141Z,62.03
2018-11-13T08:12:11.563Z,58.43
2018-11-13T08:17:52.905Z,50.80
2018-11-13T08:20:22.035Z,53.83
2018-11-13T08:22:51.321Z,50.60
2018-11-13T08:25:20.398Z,52.67
2018-11-13T08:27:50.845Z,42.70
2018-11-13T08:30:20.038Z,44.37
2018-11-13T08:32:49.227Z,41.90
2018-11-13T08:35:18.403Z,43.33
2018-11-13T08:37:47.605Z,45.03
2018-11-13T08:40:27.722Z,44.33
2018-11-13T08:42:57.057Z,39.17
2018-11-13T08:45:30.106Z,40.13
2018-11-13T08:47:59.443Z,43.70
2018-11-13T08:50:29.299Z,45.70
2018-11-13T08:52:58.592Z,51.00
2018-11-13T08:55:28.027Z,40.17
2018-11-13T09:01:01.124Z,40.50
2018-11-13T09:03:30.374Z,44.90
2018-11-13T09:05:59.496Z,37.20
2018-11-13T09:08:28.888Z,34.17
2018-11-13T09:11:04.236Z,40.33
2018-11-13T09:14:00.996Z,35.77
2018-11-13T09:19:45.098Z,37.78
2018-11-13T09:22:14.282Z,29.50
2018-11-13T09:24:43.614Z,34.67
2018-11-13T09:30:15.793Z,23.90
2018-11-13T09:32:45.459Z,28.03
2018-11-13T09:35:15.675Z,28.40
2018-11-13T09:38:08.274Z,32.87
2018-11-13T09:40:37.481Z,24.70
2018-11-13T09:43:06.918Z,26.80
2018-11-13T09:45:36.982Z,31.50
2018-11-13T09:48:07.932Z,32.00
2018-11-13T09:50:37.176Z,31.37
2018-11-13T09:53:07.775Z,31.80
2018-11-13T10:01:44.280Z,23.98
2018-11-13T10:04:14.008Z,27.50
2018-11-13T10:06:42.777Z,35.33
2018-11-13T10:12:05.365Z,30.87
2018-11-13T10:14:34.578Z,30.00
2018-11-13T10:17:05.927Z,28.30
2018-11-13T10:19:35.110Z,34.93
2018-11-13T10:22:04.251Z,28.17
2018-11-13T10:24:33.441Z,31.37
2018-11-13T10:27:10.191Z,32.23
2018-11-13T10:29:45.552Z,29.70
2018-11-13T10:32:15.082Z,35.10
2018-11-13T11:09:19.485Z,35.17
2018-11-13T11:11:48.830Z,32.60
2018-11-13T11:14:17.914Z,34.10
2018-11-13T11:16:46.977Z,29.30
2018-11-13T11:19:16.443Z,28.43
2018-11-13T11:21:45.576Z,31.20
2018-11-13T11:24:15.005Z,27.60
2018-11-13T11:26:44.492Z,26.83
2018-11-13T11:29:13.839Z,26.03
2018-11-13T11:34:18.145Z,26.37
2018-11-13T11:36:47.431Z,28.47
2018-11-13T11:39:16.774Z,24.97
2018-11-13T11:41:45.883Z,24.93
2018-11-13T11:44:15.008Z,23.43
2018-11-13T11:46:44.067Z,24.23
2018-11-13T11:49:24.218Z,23.60
2018-11-13T11:51:53.634Z,19.53
2018-11-13T11:54:22.843Z,20.77
2018-11-13T11:56:52.029Z,20.93
2018-11-13T11:59:21.186Z,21.70
2018-11-13T12:01:50.295Z,19.30
2018-11-13T12:04:19.353Z,27.50
2018-11-13T12:09:28.401Z,21.50
2018-11-13T12:15:34.421Z,19.40
2018-11-13T12:18:04.003Z,22.10
2018-11-13T12:20:33.787Z,26.23
2018-11-13T12:23:31.547Z,20.80
2018-11-13T12:31:42.663Z,27.93
2018-11-13T12:34:11.743Z,15.10
2018-11-13T12:36:40.831Z,16.73
2018-11-13T12:39:11.094Z,14.50
2018-11-13T12:41:40.465Z,22.57
2018-11-13T12:44:10.297Z,18.07
2018-11-13T12:46:39.850Z,12.57
2018-11-13T13:13:40.668Z,17.57
2018-11-13T13:16:09.878Z,15.60
2018-11-13T13:18:41.091Z,16.77
2018-11-13T13:21:10.453Z,14.37
2018-11-13T13:23:39.907Z,12.77
2018-11-13T13:27:14.611Z,15.63
2018-11-13T13:29:44.253Z,17.10
2018-11-13T13:32:13.737Z,20.37
2018-11-13T13:34:42.861Z,10.57
2018-11-13T13:37:12.649Z,13.90
2018-11-13T13:39:42.761Z,14.73
2018-11-13T13:56:05.033Z,5.35
2018-11-13T13:58:34.201Z,9.30
2018-11-13T14:01:03.292Z,3.73
2018-11-13T14:03:32.348Z,4.63
2018-11-13T14:06:02.334Z,5.10
2018-11-13T14:08:31.422Z,11.23
2018-11-13T14:11:00.655Z,10.03
2018-11-13T14:13:53.565Z,6.43
2018-11-13T14:16:48.799Z,10.60
2018-11-13T14:19:18.469Z,12.43
2018-11-13T14:21:47.653Z,18.40
2018-11-13T14:24:20.657Z,11.30
2018-11-13T14:26:49.771Z,13.67
2018-11-13T14:29:23.135Z,12.47
2018-11-13T14:31:52.429Z,16.27
2018-11-13T14:34:24.649Z,15.30
2018-11-13T14:36:54.608Z,10.93
2018-11-13T14:39:23.863Z,13.47
2018-11-13T14:41:56.987Z,12.93
2018-11-13T14:47:05.269Z,17.73
2018-11-13T14:49:35.650Z,11.30
2018-11-13T14:52:27.259Z,11.10
2018-11-13T14:54:57.761Z,14.00
2018-11-13T14:57:27.703Z,16.17
2018-11-13T15:13:41.276Z,18.07
2018-11-13T15:16:10.433Z,12.13
2018-11-13T15:20:26.651Z,15.90
2018-11-13T15:22:55.799Z,19.57
2018-11-13T15:26:01.454Z,14.40
2018-11-13T15:42:54.655Z,12.90
2018-11-13T15:45:24.453Z,19.70
2018-11-13T15:47:55.100Z,10.73
2018-11-13T15:50:26.722Z,9.90
2018-11-13T15:52:56.180Z,11.73
2018-11-13T15:58:09.119Z,9.97
2018-11-13T16:00:41.377Z,12.50
2018-11-13T16:03:17.956Z,15.30
2018-11-13T16:05:49.134Z,12.33
2018-11-13T16:08:37.632Z,15.67
2018-11-13T16:11:13.232Z,13.80
2018-11-13T16:16:35.444Z,10.30
2018-11-13T16:19:04.786Z,12.60
2018-11-13T16:21:43.365Z,12.93
2018-11-13T16:24:12.584Z,11.87
2018-11-13T16:26:42.644Z,9.27
2018-11-13T16:32:18.478Z,11.63
2018-11-13T16:34:47.762Z,13.33
2018-11-13T16:37:27.865Z,8.80
2018-11-13T16:39:57.418Z,13.33
2018-11-13T16:42:26.500Z,13.27
2018-11-13T16:48:15.427Z,16.73
2018-11-13T16:50:45.340Z,8.90
2018-11-13T16:56:18.894Z,11.13
2018-11-13T17:02:00.630Z,8.05
2018-11-13T17:04:47.519Z,16.27
2018-11-13T17:07:18.019Z,8.23
2018-11-13T17:09:48.129Z,7.80
2018-11-13T17:15:50.548Z,12.07
2018-11-13T17:21:32.769Z,8.88
2018-11-13T17:27:03.333Z,16.03
2018-11-13T17:29:33.241Z,7.00
2018-11-13T17:32:02.548Z,12.57
2018-11-13T17:34:57.823Z,8.43
2018-11-13T17:37:27.548Z,10.80
2018-11-13T17:39:56.549Z,7.50
2018-11-13T17:42:25.735Z,16.00
2018-11-13T17:44:55.489Z,12.10
2018-11-13T17:47:25.608Z,10.47
2018-11-13T17:49:56.097Z,7.93
2018-11-13T17:52:28.913Z,14.37
2018-11-13T17:54:59.434Z,13.37
2018-11-13T17:57:28.737Z,14.77
2018-11-13T17:59:58.245Z,11.17
2018-11-13T18:02:27.589Z,9.67
2018-11-13T18:04:56.671Z,10.87
2018-11-13T18:07:25.900Z,10.33
2018-11-13T18:10:47.209Z,9.17
2018-11-13T18:16:30.010Z,9.97
2018-11-13T18:18:59.590Z,14.43
2018-11-13T18:21:36.716Z,11.17
2018-11-13T18:31:33.659Z,11.23
2018-11-13T18:34:04.483Z,7.80
2018-11-13T18:36:54.984Z,11.73
2018-11-13T18:39:24.163Z,9.73
2018-11-13T18:44:30.064Z,12.47
2018-11-13T18:46:59.175Z,10.10
2018-11-13T18:49:28.286Z,8.03
2018-11-13T18:51:58.852Z,13.37
2018-11-13T18:54:35.853Z,14.17
2018-11-13T18:57:05.523Z,10.90
2018-11-13T18:59:35.119Z,9.67
2018-11-13T19:02:05.430Z,15.73
2018-11-13T19:07:35.180Z,12.30
2018-11-13T19:10:44.738Z,9.20
2018-11-13T19:13:23.244Z,8.67
2018-11-13T19:16:02.772Z,9.60
2018-11-13T19:18:32.014Z,14.20
2018-11-13T19:21:01.319Z,14.23
2018-11-13T19:23:30.356Z,9.60
2018-11-13T19:26:11.041Z,13.43
2018-11-13T19:32:30.590Z,11.97
2018-11-13T19:35:26.865Z,13.57
2018-11-13T19:38:10.432Z,15.90
2018-11-13T19:44:33.338Z,10.20
2018-11-13T19:47:02.599Z,11.83
2018-11-13T19:49:32.287Z,10.30
2018-11-13T19:52:01.183Z,9.90
2018-11-13T19:54:30.473Z,11.03
2018-11-13T19:56:59.613Z,8.60
2018-11-13T20:02:59.490Z,10.17
2018-11-13T20:05:29.359Z,12.33
2018-11-13T20:07:58.644Z,13.43
2018-11-13T20:10:28.963Z,7.30
2018-11-13T20:14:33.057Z,9.43
2018-11-13T20:17:02.222Z,18.67
2018-11-13T20:19:31.715Z,10.33
2018-11-13T20:22:03.983Z,9.30
2018-11-13T20:24:33.286Z,11.60
2018-11-13T20:30:22.548Z,12.90
2018-11-13T20:32:51.821Z,13.00
2018-11-13T20:35:21.111Z,14.93
2018-11-13T20:38:14.491Z,21.10
2018-11-13T21:36:35.697Z,12.45
2018-11-13T21:39:08.374Z,12.93
2018-11-13T21:41:37.886Z,9.77
2018-11-13T21:44:07.367Z,9.47
2018-11-13T21:46:36.973Z,13.53
2018-11-13T21:49:06.305Z,15.67
2018-11-13T21:51:37.211Z,13.27
2018-11-13T21:54:13.390Z,10.53
2018-11-13T21:57:03.575Z,16.47
2018-11-13T21:59:34.419Z,16.53
2018-11-13T22:02:06.462Z,11.90
2018-11-13T22:04:36.307Z,10.40
2018-11-13T22:07:06.455Z,12.70
2018-11-13T22:10:05.053Z,17.77
2018-11-13T22:12:34.417Z,13.83
2018-11-13T22:15:03.969Z,14.40
2018-11-13T22:17:33.277Z,12.47
2018-11-13T22:20:02.405Z,14.13
2018-11-13T22:22:32.165Z,15.57
2018-11-13T22:25:02.133Z,14.03
2018-11-13T22:27:32.679Z,17.30
2018-11-13T22:30:02.032Z,17.43
2018-11-13T22:32:30.893Z,16.73
2018-11-13T22:35:00.029Z,17.60
2018-11-13T22:37:29.296Z,19.07
2018-11-13T22:39:58.785Z,18.53
2018-11-13T22:42:27.977Z,17.87
2018-11-13T22:45:13.386Z,11.00
2018-11-13T22:47:42.644Z,19.00
2018-11-13T22:50:20.409Z,23.30
2018-11-13T22:52:49.926Z,12.30
2018-11-13T22:55:19.293Z,18.07
2018-11-13T22:57:49.337Z,19.53
2018-11-13T23:00:34.299Z,27.00
2018-11-13T23:03:03.749Z,16.53
2018-11-13T23:05:32.921Z,19.60
2018-11-13T23:08:01.946Z,15.53
2018-11-13T23:10:31.105Z,13.23
2018-11-13T23:13:23.847Z,14.40
2018-11-13T23:15:53.703Z,18.63
2018-11-13T23:18:22.841Z,12.87
2018-11-13T23:20:51.966Z,18.97
2018-11-13T23:23:21.252Z,27.80
2018-11-13T23:25:50.871Z,24.13
2018-11-13T23:28:20.300Z,13.67
2018-11-13T23:30:49.673Z,15.83
2018-11-13T23:33:21.311Z,21.63
2018-11-13T23:35:50.694Z,21.47
2018-11-13T23:38:19.835Z,15.90
2018-11-13T23:41:23.318Z,24.57
2018-11-13T23:43:52.652Z,30.17
2018-11-13T23:47:09.782Z,16.70
2018-11-13T23:49:52.413Z,23.87
2018-11-13T23:53:29.306Z,19.80
2018-11-13T23:55:58.543Z,19.50
2018-11-13T23:58:28.026Z,26.70
